Time;durP1;ratioP1;P1;durP2;ratioP2;P2;SDS_P1;SDS_P2;PMS_P1;PMS_P2;Temp;Humidity;BMP_temperature;BMP_pressure;BME280_temperature;BME280_humidity;BME280_pressure;Samples;Min_cycle;Max_cycle;Signal;HPM_P1;HPM_P2
2024/02/05 00:01:10;;;;;;;0.50;0.50;;;;;;;;;;5034340;28;20034;-64
2024/02/05 00:03:35;;;;;;;0.47;0.47;;;;;;;;;;5034592;28;20132;-64
2024/02/05 00:06:01;;;;;;;0.65;0.60;;;;;;;;;;5033302;28;20094;-64
2024/02/05 00:08:27;;;;;;;0.40;0.40;;;;;;;;;;5034609;28;20057;-64
2024/02/05 00:10:52;;;;;;;0.50;0.47;;;;;;;;;;5034693;28;20039;-64
2024/02/05 00:13:19;;;;;;;0.52;0.47;;;;;;;;;;5034428;28;20060;-64
2024/02/05 00:15:45;;;;;;;1.35;0.57;;;;;;;;;;5034507;28;20357;-64
2024/02/05 00:18:11;;;;;;;0.50;0.40;;;;;;;;;;5034613;28;20033;-64
2024/02/05 00:20:36;;;;;;;0.50;0.50;;;;;;;;;;5034573;28;20104;-64
2024/02/05 00:23:02;;;;;;;0.40;0.40;;;;;;;;;;5033141;28;20040;-64
2024/02/05 00:25:27;;;;;;;0.50;0.50;;;;;;;;;;5034005;28;20080;-64
2024/02/05 00:27:53;;;;;;;0.57;0.43;;;;;;;;;;5033035;28;20030;-64
2024/02/05 00:30:19;;;;;;;1.20;0.57;;;;;;;;;;5034470;28;20033;-64
2024/02/05 00:32:44;;;;;;;0.63;0.60;;;;;;;;;;5033716;28;20033;-64
2024/02/05 00:35:12;;;;;;;0.98;0.60;;;;;;;;;;5034311;28;20038;-64
2024/02/05 00:37:37;;;;;;;0.40;0.40;;;;;;;;;;5034083;28;20036;-64
2024/02/05 00:40:05;;;;;;;0.80;0.57;;;;;;;;;;5034313;28;20030;-64
2024/02/05 00:42:31;;;;;;;1.02;0.60;;;;;;;;;;5032015;28;20038;-64
2024/02/05 00:44:56;;;;;;;0.50;0.50;;;;;;;;;;5034222;28;20038;-64
2024/02/05 00:47:22;;;;;;;0.40;0.40;;;;;;;;;;5033624;28;20108;-64
2024/02/05 00:49:47;;;;;;;0.65;0.52;;;;;;;;;;5033972;28;20026;-65
2024/02/05 00:52:14;;;;;;;0.70;0.45;;;;;;;;;;5034162;28;20025;-64
2024/02/05 00:54:39;;;;;;;0.20;0.20;;;;;;;;;;5032640;28;20050;-63
2024/02/05 00:57:05;;;;;;;0.45;0.30;;;;;;;;;;5033052;28;20102;-64
2024/02/05 00:59:30;;;;;;;0.47;0.40;;;;;;;;;;5032735;28;20377;-63
2024/02/05 01:01:56;;;;;;;0.40;0.40;;;;;;;;;;5032261;28;20017;-63
2024/02/05 01:04:21;;;;;;;0.65;0.50;;;;;;;;;;5033694;28;20444;-64
2024/02/05 01:06:47;;;;;;;0.30;0.30;;;;;;;;;;5033610;28;20029;-64
2024/02/05 01:09:13;;;;;;;0.40;0.40;;;;;;;;;;5033466;28;20032;-64
2024/02/05 01:11:38;;;;;;;0.45;0.45;;;;;;;;;;5033958;28;20385;-64
2024/02/05 01:14:03;;;;;;;0.50;0.50;;;;;;;;;;5033359;28;20397;-65
2024/02/05 01:16:29;;;;;;;1.10;0.60;;;;;;;;;;5033410;28;20026;-64
2024/02/05 01:18:55;;;;;;;0.63;0.40;;;;;;;;;;5033409;28;20017;-64
2024/02/05 01:21:21;;;;;;;0.50;0.50;;;;;;;;;;5033625;28;20029;-64
2024/02/05 01:23:47;;;;;;;0.40;0.40;;;;;;;;;;5033280;28;20038;-64
2024/02/05 01:26:12;;;;;;;0.40;0.40;;;;;;;;;;5033611;28;20033;-64
2024/02/05 01:28:38;;;;;;;0.40;0.40;;;;;;;;;;5033257;28;20440;-65
2024/02/05 01:31:06;;;;;;;0.40;0.40;;;;;;;;;;5033263;28;20029;-63
2024/02/05 01:33:31;;;;;;;0.68;0.40;;;;;;;;;;5033148;28;20094;-63
2024/02/05 01:35:57;;;;;;;0.50;0.50;;;;;;;;;;5033168;28;20033;-63
2024/02/05 01:38:22;;;;;;;0.40;0.40;;;;;;;;;;5033526;28;20025;-64
2024/02/05 01:40:49;;;;;;;0.60;0.57;;;;;;;;;;5033148;28;20017;-64
2024/02/05 01:43:16;;;;;;;0.47;0.47;;;;;;;;;;5033485;28;20426;-64
2024/02/05 01:45:41;;;;;;;0.45;0.45;;;;;;;;;;5033219;28;20057;-64
2024/02/05 01:48:07;;;;;;;0.40;0.40;;;;;;;;;;5033451;28;20057;-64
2024/02/05 01:50:33;;;;;;;0.68;0.60;;;;;;;;;;5033527;28;20121;-64
2024/02/05 01:52:58;;;;;;;0.55;0.50;;;;;;;;;;5033700;28;20095;-64
2024/02/05 01:55:25;;;;;;;0.60;0.38;;;;;;;;;;5033015;28;20040;-64
2024/02/05 01:57:51;;;;;;;0.55;0.45;;;;;;;;;;5033035;28;20053;-64
2024/02/05 02:00:16;;;;;;;0.35;0.35;;;;;;;;;;5032958;28;20385;-64
2024/02/05 02:02:42;;;;;;;0.40;0.40;;;;;;;;;;5033151;28;20048;-63
2024/02/05 02:05:10;;;;;;;0.50;0.50;;;;;;;;;;5032964;28;20104;-64
2024/02/05 02:07:36;;;;;;;0.75;0.43;;;;;;;;;;5032974;28;20025;-63
2024/02/05 02:10:04;;;;;;;0.47;0.40;;;;;;;;;;5036635;28;20033;-63
2024/02/05 02:12:29;;;;;;;0.80;0.40;;;;;;;;;;5036500;28;20029;-64
2024/02/05 02:15:04;;;;;;;1.17;0.43;;;;;;;;;;5036684;28;20036;-63
2024/02/05 02:17:31;;;;;;;0.57;0.40;;;;;;;;;;5036653;28;20030;-63
2024/02/05 02:23:49;;;;;;;0.40;0.40;;;;;;;;;;5009726;23;20057;-64
2024/02/05 02:26:14;;;;;;;0.30;0.30;;;;;;;;;;5047110;23;20072;-58
2024/02/05 02:28:40;;;;;;;0.50;0.40;;;;;;;;;;5061202;23;20417;-58
2024/02/05 02:31:06;;;;;;;0.30;0.30;;;;;;;;;;5036645;28;20041;-64
2024/02/05 02:33:40;;;;;;;0.35;0.35;;;;;;;;;;5036225;28;20040;-64
2024/02/05 02:36:07;;;;;;;0.30;0.30;;;;;;;;;;5036224;28;20116;-63
2024/02/05 02:38:41;;;;;;;0.50;0.38;;;;;;;;;;5035923;28;20457;-63
2024/02/05 02:41:09;;;;;;;0.40;0.40;;;;;;;;;;5036447;28;20033;-64
2024/02/05 02:43:37;;;;;;;0.40;0.40;;;;;;;;;;5034628;28;20025;-62
2024/02/05 02:46:03;;;;;;;0.50;0.30;;;;;;;;;;5036097;28;20091;-64
2024/02/05 02:48:28;;;;;;;0.40;0.40;;;;;;;;;;5035981;28;20461;-64
2024/02/05 02:50:54;;;;;;;0.68;0.40;;;;;;;;;;5051102;28;20116;-65
2024/02/05 02:53:19;;;;;;;0.45;0.38;;;;;;;;;;5035583;28;20083;-64
2024/02/05 02:55:44;;;;;;;1.38;0.30;;;;;;;;;;5035893;28;20038;-64
2024/02/05 02:58:10;;;;;;;0.40;0.40;;;;;;;;;;5035540;28;20029;-62
2024/02/05 03:00:35;;;;;;;0.50;0.40;;;;;;;;;;5035824;28;20083;-62
2024/02/05 03:03:01;;;;;;;0.52;0.40;;;;;;;;;;5035492;28;20385;-62
2024/02/05 03:05:26;;;;;;;0.38;0.38;;;;;;;;;;5035432;28;20100;-61
2024/02/05 03:07:52;;;;;;;0.50;0.40;;;;;;;;;;5035679;28;20435;-61
2024/02/05 03:10:17;;;;;;;0.55;0.50;;;;;;;;;;5035314;28;20084;-62
2024/02/05 03:12:42;;;;;;;0.60;0.50;;;;;;;;;;5035224;28;20041;-62
2024/02/05 03:15:08;;;;;;;2.30;0.85;;;;;;;;;;5035510;28;20101;-62
2024/02/05 03:17:33;;;;;;;0.95;0.95;;;;;;;;;;5035502;28;20365;-61
2024/02/05 03:19:59;;;;;;;1.55;0.98;;;;;;;;;;5034629;28;20488;-61
2024/02/05 03:22:24;;;;;;;1.27;1.20;;;;;;;;;;5035367;28;20029;-61
2024/02/05 03:24:49;;;;;;;1.33;1.25;;;;;;;;;;5035573;28;20112;-61
2024/02/05 03:27:15;;;;;;;1.00;0.93;;;;;;;;;;5035277;28;20206;-61
2024/02/05 03:29:41;;;;;;;1.15;1.15;;;;;;;;;;5034805;28;20045;-61
2024/02/05 03:32:06;;;;;;;1.20;1.10;;;;;;;;;;5034889;28;20037;-61
2024/02/05 03:34:32;;;;;;;1.27;1.00;;;;;;;;;;5034819;28;20091;-61
2024/02/05 03:36:57;;;;;;;1.40;1.30;;;;;;;;;;5035097;28;20025;-61
2024/02/05 03:39:23;;;;;;;1.30;1.20;;;;;;;;;;5034843;28;20026;-61
2024/02/05 03:41:48;;;;;;;1.45;0.98;;;;;;;;;;5034722;28;20425;-61
2024/02/05 03:44:13;;;;;;;0.95;0.90;;;;;;;;;;5034658;28;20034;-61
2024/02/05 03:46:41;;;;;;;0.70;0.60;;;;;;;;;;5034649;28;20030;-61
2024/02/05 03:49:06;;;;;;;0.90;0.90;;;;;;;;;;5034545;28;20438;-61
2024/02/05 03:51:32;;;;;;;0.47;0.47;;;;;;;;;;5034843;28;20029;-62
2024/02/05 03:53:57;;;;;;;0.45;0.45;;;;;;;;;;5034412;28;20036;-61
2024/02/05 03:56:23;;;;;;;0.70;0.70;;;;;;;;;;5034493;28;20053;-61
2024/02/05 03:58:49;;;;;;;0.68;0.68;;;;;;;;;;5034700;28;20037;-61
2024/02/05 04:01:14;;;;;;;0.85;0.45;;;;;;;;;;5034683;28;20079;-61
2024/02/05 04:03:40;;;;;;;0.60;0.60;;;;;;;;;;5034276;28;20437;-61
2024/02/05 04:06:06;;;;;;;0.63;0.60;;;;;;;;;;5034849;28;20033;-61
2024/02/05 04:08:31;;;;;;;2.03;0.60;;;;;;;;;;5033026;28;20484;-61
2024/02/05 04:10:56;;;;;;;0.60;0.60;;;;;;;;;;5034157;28;20029;-62
2024/02/05 04:13:22;;;;;;;0.52;0.52;;;;;;;;;;5034641;28;20034;-62
2024/02/05 04:15:47;;;;;;;0.45;0.45;;;;;;;;;;5034102;28;20044;-62
2024/02/05 04:18:12;;;;;;;1.65;0.68;;;;;;;;;;5034082;28;20091;-62
2024/02/05 04:20:38;;;;;;;0.50;0.50;;;;;;;;;;5034291;28;20029;-62
2024/02/05 04:23:05;;;;;;;0.70;0.68;;;;;;;;;;5032698;28;20029;-62
2024/02/05 04:25:30;;;;;;;1.00;0.90;;;;;;;;;;5032691;28;20037;-62
2024/02/05 04:27:56;;;;;;;0.88;0.88;;;;;;;;;;5032501;28;20546;-61
2024/02/05 04:30:26;;;;;;;0.60;0.60;;;;;;;;;;5033972;28;20041;-63
2024/02/05 04:32:52;;;;;;;0.65;0.65;;;;;;;;;;5033886;28;20527;-62
2024/02/05 04:35:17;;;;;;;0.90;0.80;;;;;;;;;;5033625;28;20013;-63
2024/02/05 04:37:43;;;;;;;1.23;0.90;;;;;;;;;;5034244;28;20477;-55
2024/02/05 04:40:08;;;;;;;0.85;0.85;;;;;;;;;;5033718;28;20528;-55
2024/02/05 04:42:34;;;;;;;0.93;0.90;;;;;;;;;;5033759;28;20444;-55
2024/02/05 04:44:59;;;;;;;1.15;1.05;;;;;;;;;;5034185;28;20453;-55
2024/02/05 04:47:25;;;;;;;0.98;0.98;;;;;;;;;;5033966;28;20034;-54
2024/02/05 04:49:50;;;;;;;1.40;1.30;;;;;;;;;;5034145;28;20064;-54
2024/02/05 04:52:16;;;;;;;1.77;1.65;;;;;;;;;;5048774;28;20037;-54
2024/02/05 04:54:42;;;;;;;2.63;1.98;;;;;;;;;;5032325;28;20025;-54
2024/02/05 04:57:07;;;;;;;2.38;2.05;;;;;;;;;;5031926;28;20033;-56
2024/02/05 04:59:33;;;;;;;2.65;2.08;;;;;;;;;;5031782;28;20030;-57
2024/02/05 05:01:58;;;;;;;3.53;2.78;;;;;;;;;;5031454;28;20032;-57
2024/02/05 05:04:23;;;;;;;3.42;2.55;;;;;;;;;;5047122;28;20558;-56
2024/02/05 05:06:49;;;;;;;2.45;2.25;;;;;;;;;;5031377;28;20076;-57
2024/02/05 05:09:14;;;;;;;1.63;1.52;;;;;;;;;;5031685;28;20061;-57
2024/02/05 05:11:40;;;;;;;1.48;1.38;;;;;;;;;;5031609;28;20030;-57
2024/02/05 05:14:05;;;;;;;1.40;1.13;;;;;;;;;;5031287;28;20060;-57
2024/02/05 05:16:31;;;;;;;1.25;1.08;;;;;;;;;;5031610;28;20028;-57
2024/02/05 05:19:01;;;;;;;1.98;1.45;;;;;;;;;;5031313;28;20040;-57
2024/02/05 05:21:26;;;;;;;1.33;1.23;;;;;;;;;;5031286;28;20033;-58
2024/02/05 05:23:51;;;;;;;1.15;1.15;;;;;;;;;;5047202;28;20033;-57
2024/02/05 05:26:17;;;;;;;1.33;1.23;;;;;;;;;;5033291;28;20487;-58
2024/02/05 05:28:44;;;;;;;0.70;0.70;;;;;;;;;;5033297;28;20383;-55
2024/02/05 05:31:11;;;;;;;1.13;1.02;;;;;;;;;;5032034;28;20061;-55
2024/02/05 05:33:36;;;;;;;1.42;1.33;;;;;;;;;;5033446;28;20033;-55
2024/02/05 05:36:03;;;;;;;0.95;0.85;;;;;;;;;;5033480;28;20030;-55
2024/02/05 05:38:30;;;;;;;0.88;0.88;;;;;;;;;;5033191;28;20061;-56
2024/02/05 05:40:56;;;;;;;1.10;1.00;;;;;;;;;;5033210;28;20052;-55
2024/02/05 05:43:21;;;;;;;0.98;0.88;;;;;;;;;;5035422;28;20041;-55
2024/02/05 05:45:46;;;;;;;1.30;1.20;;;;;;;;;;5037244;28;20108;-55
2024/02/05 05:48:12;;;;;;;1.00;1.00;;;;;;;;;;5037438;28;20033;-55
2024/02/05 05:50:37;;;;;;;1.42;1.33;;;;;;;;;;5036831;28;20033;-55
2024/02/05 05:53:03;;;;;;;2.08;1.98;;;;;;;;;;5037004;28;20041;-56
2024/02/05 05:55:28;;;;;;;3.42;2.97;;;;;;;;;;5052391;28;20481;-55
2024/02/05 05:57:54;;;;;;;3.47;2.78;;;;;;;;;;5037311;28;20093;-56
2024/02/05 06:00:21;;;;;;;6.45;4.57;;;;;;;;;;5037193;28;20030;-55
2024/02/05 06:02:48;;;;;;;5.47;4.05;;;;;;;;;;5026263;28;20559;-55
2024/02/05 06:05:13;;;;;;;7.55;5.13;;;;;;;;;;5033622;28;20068;-56
2024/02/05 06:07:39;;;;;;;1.48;1.35;;;;;;;;;;5051902;28;20103;-55
2024/02/05 06:10:05;;;;;;;2.00;1.80;;;;;;;;;;5036570;28;20029;-55
2024/02/05 06:12:30;;;;;;;3.88;2.00;;;;;;;;;;5036552;28;20036;-55
2024/02/05 06:14:56;;;;;;;1.90;1.75;;;;;;;;;;5036872;28;20033;-55
2024/02/05 06:17:21;;;;;;;5.70;3.78;;;;;;;;;;5036354;28;20440;-55
2024/02/05 06:19:46;;;;;;;7.95;4.65;;;;;;;;;;5036583;28;20022;-55
2024/02/05 06:22:12;;;;;;;4.75;2.75;;;;;;;;;;5036802;28;20025;-54
2024/02/05 06:24:38;;;;;;;4.03;2.78;;;;;;;;;;5036775;28;20453;-54
2024/02/05 06:27:05;;;;;;;5.47;3.35;;;;;;;;;;5036694;28;20120;-52
2024/02/05 06:29:31;;;;;;;2.22;1.83;;;;;;;;;;5036025;28;20045;-52
2024/02/05 06:31:56;;;;;;;4.18;3.35;;;;;;;;;;5051000;28;20042;-52
2024/02/05 06:34:22;;;;;;;3.95;1.88;;;;;;;;;;5034840;28;20041;-51
2024/02/05 06:36:47;;;;;;;1.38;1.02;;;;;;;;;;5034747;28;20112;-52
2024/02/05 06:39:13;;;;;;;2.55;2.35;;;;;;;;;;5035146;28;20065;-52
2024/02/05 06:41:38;;;;;;;2.15;1.40;;;;;;;;;;5035837;28;20112;-52
2024/02/05 06:44:06;;;;;;;1.77;1.67;;;;;;;;;;5035450;28;20108;-52
2024/02/05 06:46:31;;;;;;;1.85;1.65;;;;;;;;;;5034880;28;20037;-51
2024/02/05 06:48:57;;;;;;;1.83;1.73;;;;;;;;;;5033874;28;20017;-51
2024/02/05 06:51:22;;;;;;;1.80;1.70;;;;;;;;;;5033437;28;20119;-51
2024/02/05 06:53:47;;;;;;;2.13;1.77;;;;;;;;;;5031626;28;20044;-51
2024/02/05 06:56:14;;;;;;;1.63;1.52;;;;;;;;;;5032291;28;20025;-52
2024/02/05 06:58:39;;;;;;;1.50;1.30;;;;;;;;;;5032374;28;20041;-51
2024/02/05 07:01:04;;;;;;;1.33;1.20;;;;;;;;;;5032252;28;20037;-52
2024/02/05 07:03:30;;;;;;;0.90;0.90;;;;;;;;;;5032502;28;20104;-52
2024/02/05 07:05:55;;;;;;;1.02;0.88;;;;;;;;;;5033341;28;20531;-51
2024/02/05 07:08:20;;;;;;;2.13;1.30;;;;;;;;;;5034976;28;20088;-51
2024/02/05 07:10:46;;;;;;;2.00;1.30;;;;;;;;;;5035928;28;20029;-51
2024/02/05 07:13:11;;;;;;;1.52;1.42;;;;;;;;;;5035799;28;20030;-51
2024/02/05 07:15:36;;;;;;;0.98;0.90;;;;;;;;;;5035229;28;20556;-51
2024/02/05 07:18:02;;;;;;;2.17;1.00;;;;;;;;;;5035770;28;20029;-51
2024/02/05 07:20:27;;;;;;;2.65;0.80;;;;;;;;;;5035715;28;20469;-52
2024/02/05 07:22:54;;;;;;;0.65;0.60;;;;;;;;;;5035453;28;20108;-51
2024/02/05 07:25:20;;;;;;;0.80;0.80;;;;;;;;;;5035102;28;20362;-52
2024/02/05 07:27:45;;;;;;;0.75;0.75;;;;;;;;;;5034916;28;20087;-52
2024/02/05 07:30:11;;;;;;;1.35;0.50;;;;;;;;;;5034979;28;20477;-52
2024/02/05 07:32:36;;;;;;;0.60;0.60;;;;;;;;;;5034974;28;20052;-51
2024/02/05 07:35:01;;;;;;;0.60;0.60;;;;;;;;;;5034837;28;20037;-51
2024/02/05 07:37:27;;;;;;;1.30;0.80;;;;;;;;;;5033626;28;20091;-52
2024/02/05 07:39:52;;;;;;;1.15;0.70;;;;;;;;;;5035071;28;20031;-52
2024/02/05 07:42:17;;;;;;;0.85;0.80;;;;;;;;;;5034799;28;20035;-51
2024/02/05 07:44:43;;;;;;;0.70;0.70;;;;;;;;;;5034751;28;20389;-52
2024/02/05 07:47:09;;;;;;;0.65;0.65;;;;;;;;;;5034633;28;20026;-52
2024/02/05 07:49:35;;;;;;;0.52;0.52;;;;;;;;;;5050344;28;20030;-51
2024/02/05 07:52:00;;;;;;;0.70;0.70;;;;;;;;;;5035158;28;20044;-52
2024/02/05 07:54:27;;;;;;;0.70;0.70;;;;;;;;;;5034416;28;20055;-54
2024/02/05 07:56:54;;;;;;;0.50;0.50;;;;;;;;;;5034788;28;20022;-54
2024/02/05 07:59:19;;;;;;;0.57;0.57;;;;;;;;;;5034657;28;20017;-54
2024/02/05 08:01:44;;;;;;;1.42;0.60;;;;;;;;;;5034432;28;20036;-54
2024/02/05 08:04:10;;;;;;;0.70;0.70;;;;;;;;;;5034634;28;20060;-54
2024/02/05 08:06:35;;;;;;;1.63;0.88;;;;;;;;;;5034296;28;20111;-54
2024/02/05 08:09:01;;;;;;;0.57;0.57;;;;;;;;;;5034591;28;20104;-54
2024/02/05 08:11:27;;;;;;;0.60;0.60;;;;;;;;;;5034497;28;20037;-54
2024/02/05 08:13:52;;;;;;;0.60;0.60;;;;;;;;;;5034692;28;20025;-54
2024/02/05 08:16:17;;;;;;;0.50;0.50;;;;;;;;;;5034149;28;20104;-54
2024/02/05 08:18:43;;;;;;;0.60;0.50;;;;;;;;;;5034380;28;20037;-54
2024/02/05 08:21:08;;;;;;;0.40;0.40;;;;;;;;;;5034879;28;20032;-54
2024/02/05 08:23:34;;;;;;;0.55;0.55;;;;;;;;;;5034311;28;20104;-54
2024/02/05 08:26:00;;;;;;;0.65;0.65;;;;;;;;;;5033996;28;20060;-54
2024/02/05 08:28:26;;;;;;;0.77;0.50;;;;;;;;;;5034000;28;20053;-54
2024/02/05 08:30:51;;;;;;;0.70;0.60;;;;;;;;;;5033927;28;20549;-54
2024/02/05 08:33:16;;;;;;;0.60;0.60;;;;;;;;;;5033816;28;20048;-54
2024/02/05 08:35:42;;;;;;;0.63;0.63;;;;;;;;;;5033802;28;20025;-54
2024/02/05 08:38:08;;;;;;;0.60;0.60;;;;;;;;;;5033808;28;20032;-54
2024/02/05 08:40:33;;;;;;;1.50;1.02;;;;;;;;;;5033788;28;20033;-54
2024/02/05 08:42:59;;;;;;;1.30;0.90;;;;;;;;;;5034016;28;20032;-54
2024/02/05 08:45:25;;;;;;;0.85;0.85;;;;;;;;;;5033949;28;20115;-54
2024/02/05 08:47:52;;;;;;;0.98;0.88;;;;;;;;;;5033959;28;20026;-54
2024/02/05 08:50:18;;;;;;;0.88;0.70;;;;;;;;;;5033661;28;20036;-54
2024/02/05 08:52:43;;;;;;;1.15;1.05;;;;;;;;;;5033645;28;20385;-54
2024/02/05 08:55:09;;;;;;;1.10;1.00;;;;;;;;;;5033805;28;20029;-54
2024/02/05 08:57:35;;;;;;;1.00;0.95;;;;;;;;;;5033577;28;20076;-54
2024/02/05 09:00:00;;;;;;;0.88;0.88;;;;;;;;;;5033789;28;20373;-54
2024/02/05 09:02:26;;;;;;;0.80;0.70;;;;;;;;;;5034113;28;20069;-54
2024/02/05 09:04:52;;;;;;;0.82;0.73;;;;;;;;;;5033525;28;20056;-54
2024/02/05 09:07:17;;;;;;;1.08;0.80;;;;;;;;;;5033463;28;20030;-54
2024/02/05 09:09:43;;;;;;;1.05;0.80;;;;;;;;;;5033777;28;20030;-54
2024/02/05 09:12:08;;;;;;;0.80;0.80;;;;;;;;;;5033423;28;20033;-54
2024/02/05 09:14:34;;;;;;;0.80;0.80;;;;;;;;;;5033646;28;20124;-54
2024/02/05 09:17:00;;;;;;;1.02;0.90;;;;;;;;;;5033490;28;20029;-54
2024/02/05 09:19:25;;;;;;;0.95;0.85;;;;;;;;;;5037574;28;20037;-54
2024/02/05 09:21:51;;;;;;;1.27;0.60;;;;;;;;;;5037443;28;20057;-54
2024/02/05 09:24:16;;;;;;;0.60;0.60;;;;;;;;;;5037933;28;20036;-54
2024/02/05 09:26:41;;;;;;;0.80;0.70;;;;;;;;;;5037382;28;20503;-54
2024/02/05 09:29:07;;;;;;;0.77;0.77;;;;;;;;;;5036969;28;20085;-54
2024/02/05 09:31:32;;;;;;;0.70;0.70;;;;;;;;;;5037487;28;20033;-54
2024/02/05 09:33:58;;;;;;;0.73;0.70;;;;;;;;;;5037063;28;20037;-54
2024/02/05 09:36:24;;;;;;;0.95;0.90;;;;;;;;;;5037154;28;20389;-54
2024/02/05 09:38:50;;;;;;;1.25;1.10;;;;;;;;;;5037289;28;20037;-54
2024/02/05 09:41:20;;;;;;;1.05;1.00;;;;;;;;;;5037074;28;20435;-54
2024/02/05 09:43:47;;;;;;;1.05;0.95;;;;;;;;;;5037043;28;20037;-54
2024/02/05 09:46:15;;;;;;;2.72;1.30;;;;;;;;;;5036967;28;20033;-54
2024/02/05 09:48:42;;;;;;;1.25;1.13;;;;;;;;;;5037180;28;20022;-54
2024/02/05 09:51:08;;;;;;;1.15;1.05;;;;;;;;;;5037136;28;20033;-54
2024/02/05 09:53:33;;;;;;;1.95;1.75;;;;;;;;;;5036752;28;20030;-54
2024/02/05 09:56:00;;;;;;;3.20;2.25;;;;;;;;;;5036784;28;20543;-54
2024/02/05 09:58:25;;;;;;;3.63;2.45;;;;;;;;;;5037015;28;20034;-54
2024/02/05 10:00:51;;;;;;;2.35;2.15;;;;;;;;;;5036951;28;20382;-54
2024/02/05 10:03:17;;;;;;;2.72;1.90;;;;;;;;;;5036632;28;20041;-54
2024/02/05 10:05:44;;;;;;;2.33;1.83;;;;;;;;;;5037161;28;20029;-54
2024/02/05 10:08:43;;;;;;;1.70;1.60;;;;;;;;;;5041858;23;20054;-55
2024/02/05 10:11:23;;;;;;;1.83;1.65;;;;;;;;;;5025634;23;20065;-62
2024/02/05 10:14:25;;;;;;;2.25;2.05;;;;;;;;;;5052103;23;20054;-62
2024/02/05 10:16:52;;;;;;;1.80;1.70;;;;;;;;;;5046208;23;20448;-54
2024/02/05 10:19:17;;;;;;;1.42;1.33;;;;;;;;;;4997042;28;20398;-54
2024/02/05 10:21:43;;;;;;;1.35;1.25;;;;;;;;;;4997219;28;20030;-54
2024/02/05 10:24:12;;;;;;;1.30;1.20;;;;;;;;;;4996918;28;20419;-54
2024/02/05 10:26:38;;;;;;;1.27;1.17;;;;;;;;;;4997170;28;20455;-54
2024/02/05 10:29:06;;;;;;;1.45;1.20;;;;;;;;;;4995656;28;20121;-54
2024/02/05 10:31:32;;;;;;;1.25;1.15;;;;;;;;;;4996823;28;20034;-54
2024/02/05 10:33:57;;;;;;;1.30;1.20;;;;;;;;;;4997190;28;20034;-54
2024/02/05 10:36:23;;;;;;;2.58;1.67;;;;;;;;;;4996718;28;20062;-54
2024/02/05 10:38:48;;;;;;;3.63;2.15;;;;;;;;;;4996935;28;20059;-54
2024/02/05 10:41:14;;;;;;;4.88;3.10;;;;;;;;;;4996608;28;20037;-54
2024/02/05 10:43:43;;;;;;;3.83;2.20;;;;;;;;;;4996840;28;20474;-54
2024/02/05 10:46:08;;;;;;;1.33;1.23;;;;;;;;;;4996813;28;20100;-54
2024/02/05 10:48:33;;;;;;;1.23;1.13;;;;;;;;;;4996459;28;20089;-54
2024/02/05 10:50:59;;;;;;;0.90;0.60;;;;;;;;;;4996430;28;20022;-54
2024/02/05 10:53:26;;;;;;;3.67;1.35;;;;;;;;;;4996253;28;20462;-54
2024/02/05 10:55:52;;;;;;;4.18;2.53;;;;;;;;;;4996618;28;20030;-54
2024/02/05 10:58:18;;;;;;;3.15;2.15;;;;;;;;;;5027914;28;20030;-54
2024/02/05 11:00:44;;;;;;;2.97;2.38;;;;;;;;;;4996515;28;20034;-54
2024/02/05 11:03:12;;;;;;;0.80;0.68;;;;;;;;;;4996242;28;20458;-54
2024/02/05 11:05:40;;;;;;;3.35;2.33;;;;;;;;;;4996441;28;20031;-54
2024/02/05 11:08:06;;;;;;;2.53;1.98;;;;;;;;;;4996399;28;20069;-54
2024/02/05 11:10:32;;;;;;;2.03;1.52;;;;;;;;;;4996670;28;20425;-54
2024/02/05 11:12:59;;;;;;;1.67;1.48;;;;;;;;;;4996265;28;20035;-54
2024/02/05 11:15:25;;;;;;;2.42;1.77;;;;;;;;;;4996016;28;20058;-54
2024/02/05 11:17:51;;;;;;;5.28;2.40;;;;;;;;;;5007556;28;20494;-54
2024/02/05 11:20:17;;;;;;;2.35;1.50;;;;;;;;;;5015441;28;20084;-54
2024/02/05 11:22:44;;;;;;;1.58;1.48;;;;;;;;;;5015428;28;20494;-54
2024/02/05 11:25:09;;;;;;;1.20;0.95;;;;;;;;;;4981572;28;20061;-54
2024/02/05 11:27:35;;;;;;;3.08;1.70;;;;;;;;;;5014689;28;20073;-54
2024/02/05 11:30:03;;;;;;;3.05;1.60;;;;;;;;;;5015825;28;20073;-54
2024/02/05 11:32:38;;;;;;;2.42;1.50;;;;;;;;;;5015249;28;20034;-54
2024/02/05 11:35:10;;;;;;;1.70;1.60;;;;;;;;;;5015650;28;20515;-54
2024/02/05 11:37:36;;;;;;;1.35;1.25;;;;;;;;;;5015422;28;20064;-54
2024/02/05 11:40:01;;;;;;;1.13;1.02;;;;;;;;;;5015031;28;20014;-54
2024/02/05 11:42:31;;;;;;;1.35;1.23;;;;;;;;;;5015600;28;20033;-54
2024/02/05 11:44:59;;;;;;;1.40;1.05;;;;;;;;;;5015265;28;20030;-54
2024/02/05 11:47:24;;;;;;;1.52;1.38;;;;;;;;;;5014927;28;20045;-54
2024/02/05 11:49:52;;;;;;;1.52;1.42;;;;;;;;;;5015201;28;20038;-54
2024/02/05 11:52:17;;;;;;;1.23;1.10;;;;;;;;;;5015121;28;20045;-54
2024/02/05 11:54:43;;;;;;;1.55;0.95;;;;;;;;;;5015007;28;20026;-54
2024/02/05 11:57:08;;;;;;;2.50;1.23;;;;;;;;;;5015314;28;20084;-54
2024/02/05 11:59:33;;;;;;;1.50;1.40;;;;;;;;;;5015265;28;20038;-54
2024/02/05 12:02:00;;;;;;;2.17;1.15;;;;;;;;;;5014697;28;20113;-54
2024/02/05 12:04:25;;;;;;;1.80;0.70;;;;;;;;;;5014921;28;20033;-54
2024/02/05 12:06:50;;;;;;;0.90;0.88;;;;;;;;;;5014914;28;20030;-54
2024/02/05 12:09:16;;;;;;;1.35;1.25;;;;;;;;;;5014838;28;20034;-54
2024/02/05 12:11:42;;;;;;;0.80;0.80;;;;;;;;;;5014536;28;20544;-54
2024/02/05 12:14:08;;;;;;;1.40;1.30;;;;;;;;;;5014408;28;20101;-54
2024/02/05 12:16:33;;;;;;;1.50;1.27;;;;;;;;;;5013443;28;20145;-54
2024/02/05 12:18:59;;;;;;;0.80;0.80;;;;;;;;;;5014419;28;20065;-54
2024/02/05 12:21:25;;;;;;;2.00;1.60;;;;;;;;;;5014459;28;20028;-54
2024/02/05 12:23:51;;;;;;;1.23;1.13;;;;;;;;;;5014305;28;20038;-54
2024/02/05 12:26:17;;;;;;;1.15;1.08;;;;;;;;;;5014268;28;20080;-54
2024/02/05 12:28:43;;;;;;;1.40;1.30;;;;;;;;;;5014483;28;20017;-54
2024/02/05 12:31:08;;;;;;;1.20;1.10;;;;;;;;;;5014498;28;20041;-54
2024/02/05 12:33:34;;;;;;;1.73;1.27;;;;;;;;;;5014098;28;20037;-54
2024/02/05 12:36:01;;;;;;;1.50;1.35;;;;;;;;;;5014404;28;20030;-54
2024/02/05 12:38:27;;;;;;;1.27;0.80;;;;;;;;;;5014117;28;20026;-54
2024/02/05 12:40:53;;;;;;;1.83;1.10;;;;;;;;;;5014318;28;20092;-54
2024/02/05 12:43:20;;;;;;;1.20;1.08;;;;;;;;;;5014329;28;20033;-54
2024/02/05 12:45:46;;;;;;;1.85;1.05;;;;;;;;;;5013953;28;20544;-54
2024/02/05 12:48:11;;;;;;;1.40;1.25;;;;;;;;;;5014231;28;20116;-54
2024/02/05 12:50:38;;;;;;;1.92;1.50;;;;;;;;;;5014201;28;20040;-54
2024/02/05 12:53:04;;;;;;;0.98;0.95;;;;;;;;;;5013146;28;20061;-54
2024/02/05 12:55:29;;;;;;;2.28;1.40;;;;;;;;;;5012582;28;20430;-54
2024/02/05 12:57:55;;;;;;;1.25;1.15;;;;;;;;;;5029122;28;20021;-54
2024/02/05 13:00:21;;;;;;;0.75;0.75;;;;;;;;;;5012659;28;20058;-54
2024/02/05 13:02:46;;;;;;;1.30;1.20;;;;;;;;;;5014393;28;20061;-54
2024/02/05 13:05:12;;;;;;;1.55;1.00;;;;;;;;;;5013803;28;20497;-54
2024/02/05 13:07:38;;;;;;;1.33;1.20;;;;;;;;;;5014044;28;20049;-54
2024/02/05 13:10:05;;;;;;;1.48;1.15;;;;;;;;;;5014297;28;20022;-54
2024/02/05 13:12:30;;;;;;;1.80;1.38;;;;;;;;;;5014021;28;20028;-54
2024/02/05 13:14:56;;;;;;;4.40;2.63;;;;;;;;;;5028875;28;20468;-54
2024/02/05 13:17:21;;;;;;;1.85;1.58;;;;;;;;;;5013735;28;20045;-54
2024/02/05 13:19:47;;;;;;;1.70;1.60;;;;;;;;;;5014217;28;20033;-54
2024/02/05 13:22:12;;;;;;;1.83;1.73;;;;;;;;;;5013902;28;20026;-54
2024/02/05 13:24:37;;;;;;;1.35;1.25;;;;;;;;;;5013898;28;20117;-54
2024/02/05 13:27:03;;;;;;;1.38;1.27;;;;;;;;;;5013528;28;20072;-51
2024/02/05 13:29:28;;;;;;;2.17;1.90;;;;;;;;;;5013877;28;20030;-51
2024/02/05 13:31:53;;;;;;;1.60;1.45;;;;;;;;;;5014095;28;20065;-52
2024/02/05 13:34:20;;;;;;;2.08;1.60;;;;;;;;;;5013429;28;20030;-51
2024/02/05 13:36:46;;;;;;;1.38;1.27;;;;;;;;;;5013469;28;20026;-52
2024/02/05 13:39:12;;;;;;;2.00;1.73;;;;;;;;;;5013487;28;20049;-52
2024/02/05 13:41:38;;;;;;;1.38;1.25;;;;;;;;;;5013494;28;20022;-51
2024/02/05 13:44:08;;;;;;;1.80;1.10;;;;;;;;;;5013418;28;20034;-52
2024/02/05 13:46:33;;;;;;;1.50;1.10;;;;;;;;;;5013446;28;20043;-52
2024/02/05 13:48:59;;;;;;;2.28;1.55;;;;;;;;;;5013702;28;20092;-52
2024/02/05 13:51:24;;;;;;;1.23;0.93;;;;;;;;;;5013607;28;20030;-52
2024/02/05 13:53:49;;;;;;;0.93;0.73;;;;;;;;;;5013528;28;20033;-52
2024/02/05 13:56:15;;;;;;;0.85;0.85;;;;;;;;;;5013854;28;20025;-51
2024/02/05 13:58:41;;;;;;;2.72;1.65;;;;;;;;;;5013292;28;20026;-51
2024/02/05 14:01:06;;;;;;;2.38;1.52;;;;;;;;;;5013253;28;20026;-52
2024/02/05 14:03:32;;;;;;;2.42;2.20;;;;;;;;;;5014682;28;20041;-54
2024/02/05 14:05:57;;;;;;;2.42;1.83;;;;;;;;;;5016870;28;20394;-54
2024/02/05 14:08:22;;;;;;;1.33;1.10;;;;;;;;;;5017362;28;20108;-54
2024/02/05 14:10:49;;;;;;;1.52;1.42;;;;;;;;;;5017003;28;20030;-54
2024/02/05 14:13:15;;;;;;;1.13;1.05;;;;;;;;;;5016631;28;20025;-54
2024/02/05 14:15:40;;;;;;;3.85;1.25;;;;;;;;;;5016960;28;20359;-54
2024/02/05 14:18:06;;;;;;;3.15;1.80;;;;;;;;;;5016946;28;20429;-54
2024/02/05 14:20:31;;;;;;;1.55;1.20;;;;;;;;;;5032198;28;20096;-54
2024/02/05 14:22:56;;;;;;;1.23;1.05;;;;;;;;;;5017061;28;20049;-54
2024/02/05 14:25:21;;;;;;;3.30;1.92;;;;;;;;;;5016750;28;20073;-54
2024/02/05 14:27:47;;;;;;;2.55;1.65;;;;;;;;;;5016986;28;20037;-54
2024/02/05 14:30:12;;;;;;;3.10;2.65;;;;;;;;;;5016651;28;20092;-54
2024/02/05 14:32:38;;;;;;;1.85;1.63;;;;;;;;;;5016384;28;20036;-54
2024/02/05 14:35:04;;;;;;;3.00;2.20;;;;;;;;;;5031642;28;20837;-54
2024/02/05 14:37:29;;;;;;;4.15;2.83;;;;;;;;;;5016099;28;20033;-54
2024/02/05 14:39:54;;;;;;;4.18;2.65;;;;;;;;;;5016071;28;20038;-54